createdAt,value
2023-03-19T00:01:54.953Z,3.28
2023-03-19T00:04:22.172Z,3.32
2023-03-19T00:06:48.645Z,3.31
2023-03-19T00:09:15.162Z,3.17
2023-03-19T00:11:42.214Z,2.96
2023-03-19T00:14:08.935Z,3.01
2023-03-19T00:16:36.584Z,3.07
2023-03-19T00:19:03.891Z,2.92
2023-03-19T00:21:31.209Z,2.83
2023-03-19T00:24:01.031Z,3.04
2023-03-19T00:26:31.312Z,3.19
2023-03-19T00:28:57.836Z,3.01
2023-03-19T00:31:24.463Z,2.93
2023-03-19T00:33:51.027Z,2.88
2023-03-19T00:36:18.249Z,2.76
2023-03-19T00:38:45.305Z,2.91
2023-03-19T00:41:13.039Z,2.79
2023-03-19T00:43:39.690Z,2.74
2023-03-19T00:46:06.770Z,2.80
2023-03-19T00:48:34.724Z,2.70
2023-03-19T00:51:03.346Z,2.78
2023-03-19T00:53:29.809Z,2.89
2023-03-19T00:55:56.564Z,2.90
2023-03-19T00:58:23.074Z,3.00
2023-03-19T01:00:54.016Z,2.92
2023-03-19T01:03:20.897Z,2.75
2023-03-19T01:08:15.966Z,2.80
2023-03-19T01:10:42.774Z,2.86
2023-03-19T01:13:09.262Z,2.81
2023-03-19T01:15:37.013Z,2.70
2023-03-19T01:18:03.554Z,2.60
2023-03-19T01:20:29.994Z,2.57
2023-03-19T01:22:56.497Z,2.57
2023-03-19T01:25:23.079Z,2.69
2023-03-19T01:28:00.999Z,2.71
2023-03-19T01:30:28.070Z,2.65
2023-03-19T01:33:16.658Z,2.30
2023-03-19T01:36:03.924Z,2.46
2023-03-19T01:38:38.173Z,2.79
2023-03-19T01:41:12.822Z,2.52
2023-03-19T01:43:39.447Z,2.52
2023-03-19T01:46:23.232Z,2.42
2023-03-19T01:49:14.146Z,2.55
2023-03-19T01:51:46.305Z,2.55
2023-03-19T01:54:31.241Z,2.33
2023-03-19T01:57:11.340Z,2.24
2023-03-19T02:00:14.502Z,2.39
2023-03-19T02:02:44.775Z,2.54
2023-03-19T02:05:39.508Z,2.65
2023-03-19T02:08:11.843Z,2.70
2023-03-19T02:10:39.342Z,2.54
2023-03-19T02:13:06.475Z,2.58
2023-03-19T02:15:33.148Z,2.50
2023-03-19T02:17:59.652Z,2.32
2023-03-19T02:20:27.051Z,2.69
2023-03-19T02:23:00.809Z,2.81
2023-03-19T02:25:31.032Z,2.69
2023-03-19T02:27:58.166Z,2.60
2023-03-19T02:30:26.702Z,2.51
2023-03-19T02:32:54.737Z,2.50
2023-03-19T02:35:21.324Z,2.54
2023-03-19T02:37:47.819Z,2.59
2023-03-19T02:40:21.350Z,2.49
2023-03-19T02:42:47.875Z,2.52
2023-03-19T02:45:14.821Z,2.58
2023-03-19T02:47:41.619Z,2.51
2023-03-19T02:50:08.693Z,1.95
2023-03-19T02:52:35.611Z,2.34
2023-03-19T02:55:02.352Z,2.33
2023-03-19T02:57:28.809Z,2.12
2023-03-19T02:59:55.724Z,2.24
2023-03-19T03:02:22.522Z,2.30
2023-03-19T03:04:49.056Z,2.30
2023-03-19T03:07:15.560Z,2.15
2023-03-19T03:09:42.126Z,2.16
2023-03-19T03:12:09.975Z,2.23
2023-03-19T03:14:36.534Z,2.18
2023-03-19T03:17:02.999Z,1.82
2023-03-19T03:19:29.497Z,2.13
2023-03-19T03:21:57.334Z,2.06
2023-03-19T03:24:24.243Z,2.00
2023-03-19T03:26:50.689Z,2.07
2023-03-19T03:29:17.177Z,1.94
2023-03-19T03:31:43.789Z,2.23
2023-03-19T03:34:10.551Z,2.21
2023-03-19T03:36:37.599Z,2.13
2023-03-19T03:39:04.203Z,2.10
2023-03-19T03:41:30.734Z,1.84
2023-03-19T03:43:57.597Z,1.88
2023-03-19T03:46:24.427Z,1.84
2023-03-19T03:48:51.780Z,2.07
2023-03-19T03:51:19.041Z,2.23
2023-03-19T03:53:45.617Z,2.11
2023-03-19T03:56:12.953Z,2.06
2023-03-19T03:58:39.530Z,1.78
2023-03-19T04:01:07.176Z,1.55
2023-03-19T04:03:34.058Z,1.77
2023-03-19T04:06:00.778Z,1.86
2023-03-19T04:08:27.821Z,1.76
2023-03-19T04:10:54.415Z,1.57
2023-03-19T04:13:20.900Z,1.66
2023-03-19T04:15:47.793Z,1.57
2023-03-19T04:18:15.250Z,1.77
2023-03-19T04:20:42.026Z,1.91
2023-03-19T04:23:08.785Z,1.50
2023-03-19T04:25:35.576Z,1.52
2023-03-19T04:28:02.130Z,1.48
2023-03-19T04:30:28.996Z,1.51
2023-03-19T04:32:56.714Z,1.67
2023-03-19T04:35:23.578Z,1.85
2023-03-19T04:37:50.164Z,1.82
2023-03-19T04:40:19.374Z,1.75
2023-03-19T04:42:46.792Z,1.69
2023-03-19T04:45:25.809Z,1.26
2023-03-19T04:47:52.613Z,1.25
2023-03-19T04:50:19.930Z,1.43
2023-03-19T04:52:46.388Z,1.55
2023-03-19T04:55:13.205Z,1.23
2023-03-19T04:58:03.102Z,1.13
2023-03-19T05:00:32.737Z,1.21
2023-03-19T05:02:59.806Z,1.52
2023-03-19T05:05:28.299Z,1.71
2023-03-19T05:07:55.349Z,1.61
2023-03-19T05:10:21.784Z,1.57
2023-03-19T05:12:48.394Z,1.55
2023-03-19T05:15:15.105Z,1.40
2023-03-19T05:17:51.412Z,1.59
2023-03-19T05:20:22.118Z,1.60
2023-03-19T05:22:55.166Z,1.81
2023-03-19T05:25:30.220Z,1.60
2023-03-19T05:27:57.034Z,1.58
2023-03-19T05:30:24.736Z,1.48
2023-03-19T05:33:07.827Z,1.71
2023-03-19T05:35:38.004Z,2.00
2023-03-19T05:38:11.831Z,2.17
2023-03-19T05:40:42.204Z,2.02
2023-03-19T05:43:21.527Z,2.33
2023-03-19T05:45:54.991Z,2.43
2023-03-19T05:48:28.063Z,2.52
2023-03-19T05:50:54.558Z,2.79
2023-03-19T05:53:23.033Z,3.08
2023-03-19T05:56:09.607Z,3.38
2023-03-19T05:58:47.396Z,3.60
2023-03-19T06:01:18.257Z,3.77
2023-03-19T06:03:45.455Z,4.19
2023-03-19T06:06:14.333Z,4.12
2023-03-19T06:08:43.828Z,4.60
2023-03-19T06:11:20.556Z,4.79
2023-03-19T06:13:54.802Z,4.93
2023-03-19T06:16:21.418Z,5.17
2023-03-19T06:18:52.119Z,5.31
2023-03-19T06:21:19.216Z,5.51
2023-03-19T06:23:45.838Z,5.28
2023-03-19T06:26:16.316Z,5.72
2023-03-19T06:28:48.865Z,5.81
2023-03-19T06:31:16.553Z,5.85
2023-03-19T06:34:01.998Z,6.08
2023-03-19T06:36:39.149Z,6.52
2023-03-19T06:39:09.241Z,7.10
2023-03-19T06:41:36.001Z,7.35
2023-03-19T06:44:12.116Z,7.27
2023-03-19T06:46:38.626Z,7.96
2023-03-19T06:49:05.084Z,8.02
2023-03-19T06:51:31.612Z,8.16
2023-03-19T06:53:58.157Z,8.14
2023-03-19T06:56:24.867Z,8.00
2023-03-19T06:58:51.380Z,8.32
2023-03-19T07:01:17.864Z,9.59
2023-03-19T07:03:44.699Z,8.51
2023-03-19T07:06:11.626Z,8.78
2023-03-19T07:08:38.122Z,9.75
2023-03-19T07:11:05.544Z,9.47
2023-03-19T07:13:33.099Z,10.00
2023-03-19T07:15:59.727Z,10.30
2023-03-19T07:18:26.371Z,10.56
2023-03-19T07:20:53.244Z,10.88
2023-03-19T07:23:19.729Z,11.04
2023-03-19T07:25:47.637Z,12.10
2023-03-19T07:28:14.324Z,11.99
2023-03-19T07:30:40.816Z,12.66
2023-03-19T07:33:07.790Z,12.27
2023-03-19T07:35:34.764Z,12.27
2023-03-19T07:38:02.601Z,12.07
2023-03-19T07:40:29.054Z,12.04
2023-03-19T07:42:55.716Z,12.95
2023-03-19T07:45:22.530Z,12.98
2023-03-19T07:47:52.583Z,12.21
2023-03-19T07:50:18.997Z,12.95
2023-03-19T07:52:47.045Z,12.80
2023-03-19T07:55:13.697Z,12.58
2023-03-19T07:57:40.749Z,12.49
2023-03-19T08:00:08.241Z,12.24
2023-03-19T08:02:39.369Z,13.00
2023-03-19T08:05:06.195Z,13.32
2023-03-19T08:07:32.799Z,11.95
2023-03-19T08:09:59.264Z,12.39
2023-03-19T08:12:26.230Z,12.93
2023-03-19T08:14:52.788Z,12.83
2023-03-19T08:17:19.219Z,13.14
2023-03-19T08:19:46.773Z,13.08
2023-03-19T08:22:13.551Z,12.81
2023-03-19T08:24:40.228Z,13.53
2023-03-19T08:27:06.802Z,13.65
2023-03-19T08:29:33.412Z,13.94
2023-03-19T08:32:01.259Z,14.24
2023-03-19T08:34:27.734Z,13.91
2023-03-19T08:36:54.155Z,14.12
2023-03-19T08:39:20.777Z,13.57
2023-03-19T08:41:47.188Z,14.08
2023-03-19T08:44:14.143Z,13.97
2023-03-19T08:46:42.505Z,14.38
2023-03-19T08:49:09.283Z,15.18
2023-03-19T08:51:36.376Z,15.05
2023-03-19T08:54:02.919Z,15.20
2023-03-19T08:56:29.454Z,15.02
2023-03-19T08:58:56.459Z,14.16
2023-03-19T09:01:23.859Z,15.15
2023-03-19T09:03:50.648Z,15.50
2023-03-19T09:06:17.158Z,14.51
2023-03-19T09:08:44.687Z,14.71
2023-03-19T09:11:11.232Z,14.96
2023-03-19T09:13:37.878Z,15.21
2023-03-19T09:16:04.799Z,14.90
2023-03-19T09:18:31.442Z,14.96
2023-03-19T09:20:57.924Z,15.62
2023-03-19T09:23:24.429Z,16.05
2023-03-19T09:25:51.302Z,15.81
2023-03-19T09:28:18.277Z,16.05
2023-03-19T09:30:48.193Z,15.92
2023-03-19T09:33:15.149Z,16.46
2023-03-19T09:35:42.154Z,16.97
2023-03-19T09:38:08.658Z,16.82
2023-03-19T09:40:37.838Z,17.47
2023-03-19T09:43:24.979Z,16.26
2023-03-19T09:45:51.769Z,17.28
2023-03-19T09:48:20.793Z,17.40
2023-03-19T09:50:48.781Z,16.32
2023-03-19T09:53:15.365Z,16.33
2023-03-19T09:55:49.654Z,16.36
2023-03-19T09:58:21.505Z,16.09
2023-03-19T10:00:50.522Z,16.42
2023-03-19T10:03:29.188Z,16.20
2023-03-19T10:06:14.412Z,16.63
2023-03-19T10:08:59.217Z,16.88
2023-03-19T10:11:29.601Z,17.19
2023-03-19T10:14:02.146Z,16.62
2023-03-19T10:16:29.737Z,17.40
2023-03-19T10:19:01.654Z,17.22
2023-03-19T10:21:40.201Z,17.04
2023-03-19T10:24:22.411Z,16.84
2023-03-19T10:26:49.973Z,16.87
2023-03-19T10:29:20.841Z,17.59
2023-03-19T10:32:07.605Z,17.84
2023-03-19T10:34:41.014Z,17.72
2023-03-19T10:37:15.264Z,18.39
2023-03-19T10:39:45.777Z,18.26
2023-03-19T10:42:25.752Z,18.16
2023-03-19T10:45:28.128Z,17.30
2023-03-19T10:47:56.864Z,17.29
2023-03-19T10:50:31.385Z,16.89
2023-03-19T10:53:13.203Z,16.76
2023-03-19T10:55:47.374Z,16.36
2023-03-19T10:58:18.468Z,16.71
2023-03-19T11:01:05.200Z,16.11
2023-03-19T11:03:33.815Z,15.51
2023-03-19T11:06:06.906Z,15.38
2023-03-19T11:08:37.614Z,15.57
2023-03-19T11:11:04.277Z,15.51
2023-03-19T11:13:34.057Z,15.98
2023-03-19T11:16:00.878Z,15.71
2023-03-19T11:18:28.361Z,15.60
2023-03-19T11:20:59.634Z,15.69
2023-03-19T11:23:30.557Z,16.62
2023-03-19T11:26:01.757Z,15.73
2023-03-19T11:28:32.889Z,15.89
2023-03-19T11:31:00.009Z,16.47
2023-03-19T11:33:42.562Z,16.20
2023-03-19T11:36:13.026Z,15.98
2023-03-19T11:38:50.999Z,15.97
2023-03-19T11:41:23.817Z,16.41
2023-03-19T11:44:02.160Z,17.47
2023-03-19T11:46:36.341Z,18.06
2023-03-19T11:49:14.897Z,18.83
2023-03-19T11:51:52.663Z,18.63
2023-03-19T11:54:31.107Z,19.78
2023-03-19T11:57:03.991Z,20.09
2023-03-19T11:59:36.619Z,20.29
2023-03-19T12:02:09.314Z,20.61
2023-03-19T12:04:41.856Z,20.52
2023-03-19T12:07:08.567Z,20.09
2023-03-19T12:09:46.188Z,20.50
2023-03-19T12:12:42.259Z,19.49
2023-03-19T12:15:11.823Z,20.43
2023-03-19T12:17:45.739Z,21.17
2023-03-19T12:20:20.559Z,20.58
2023-03-19T12:22:59.406Z,21.16
2023-03-19T12:25:34.543Z,20.49
2023-03-19T12:28:20.120Z,20.34
2023-03-19T12:30:58.148Z,19.93
2023-03-19T12:33:34.618Z,20.47
2023-03-19T12:36:03.109Z,20.44
2023-03-19T12:38:32.774Z,20.16
2023-03-19T12:41:05.156Z,19.99
2023-03-19T12:43:37.128Z,20.89
2023-03-19T12:46:33.100Z,20.83
2023-03-19T12:49:18.296Z,20.64
2023-03-19T12:51:49.438Z,20.80
2023-03-19T12:54:15.869Z,20.54
2023-03-19T12:56:48.397Z,20.21
2023-03-19T12:59:33.274Z,20.46
2023-03-19T13:02:03.740Z,19.72
2023-03-19T13:04:33.438Z,19.74
2023-03-19T13:07:07.592Z,19.85
2023-03-19T13:09:52.982Z,18.95
2023-03-19T13:12:19.468Z,18.37
2023-03-19T13:14:59.880Z,18.30
2023-03-19T13:17:49.373Z,18.73
2023-03-19T13:20:15.853Z,18.13
2023-03-19T13:22:45.188Z,18.45
2023-03-19T13:25:15.462Z,18.69
2023-03-19T13:27:42.477Z,18.20
2023-03-19T13:30:12.137Z,18.99
2023-03-19T13:32:39.127Z,18.28
2023-03-19T13:35:13.545Z,18.10
2023-03-19T13:37:43.572Z,18.27
2023-03-19T13:40:30.374Z,18.23
2023-03-19T13:42:57.624Z,18.59
2023-03-19T13:45:27.653Z,17.85
2023-03-19T13:47:58.379Z,17.58
2023-03-19T13:50:29.260Z,17.86
2023-03-19T13:53:20.216Z,18.18
2023-03-19T13:55:49.972Z,18.47
2023-03-19T13:58:39.718Z,18.72
2023-03-19T14:01:07.051Z,18.86
2023-03-19T14:03:35.170Z,18.64
2023-03-19T14:06:03.818Z,19.33
2023-03-19T14:08:42.833Z,19.14
2023-03-19T14:11:10.136Z,18.84
2023-03-19T14:13:40.038Z,18.69
2023-03-19T14:16:26.904Z,18.69
2023-03-19T14:18:57.629Z,18.61
2023-03-19T14:21:47.288Z,18.67
2023-03-19T14:24:55.350Z,18.32
2023-03-19T14:27:22.695Z,18.53
2023-03-19T14:29:49.647Z,19.02
2023-03-19T14:32:20.543Z,18.53
2023-03-19T14:34:48.946Z,18.59
2023-03-19T14:37:19.373Z,18.65
2023-03-19T14:39:49.201Z,18.07
2023-03-19T14:42:21.188Z,17.62
2023-03-19T14:44:56.822Z,18.01
2023-03-19T14:47:29.022Z,17.57
2023-03-19T14:50:06.599Z,17.46
2023-03-19T14:52:36.591Z,17.97
2023-03-19T14:55:09.625Z,17.54
2023-03-19T14:57:36.149Z,17.58
2023-03-19T15:00:06.587Z,17.49
2023-03-19T15:02:35.161Z,17.22
2023-03-19T15:05:04.720Z,16.99
2023-03-19T15:07:38.319Z,17.86
2023-03-19T15:10:06.844Z,17.38
2023-03-19T15:12:34.291Z,17.58
2023-03-19T15:15:19.494Z,17.50
2023-03-19T15:17:54.403Z,16.91
2023-03-19T15:20:24.399Z,17.13
2023-03-19T15:22:55.427Z,17.34
2023-03-19T15:25:22.600Z,17.13
2023-03-19T15:28:04.634Z,17.21
2023-03-19T15:30:32.608Z,17.47
2023-03-19T15:33:12.024Z,17.34
2023-03-19T15:35:41.499Z,17.07
2023-03-19T15:38:09.191Z,16.99
2023-03-19T15:40:36.910Z,16.94
2023-03-19T15:43:03.761Z,17.05
2023-03-19T15:45:33.658Z,16.84
2023-03-19T15:48:03.025Z,16.88
2023-03-19T15:50:33.268Z,16.95
2023-03-19T15:53:11.776Z,16.90
2023-03-19T15:55:38.587Z,16.80
2023-03-19T15:58:07.200Z,16.84
2023-03-19T16:00:37.799Z,16.70
2023-03-19T16:03:06.787Z,16.70
2023-03-19T16:05:33.578Z,16.63
2023-03-19T16:08:02.036Z,16.81
2023-03-19T16:10:28.451Z,16.56
2023-03-19T16:12:55.489Z,16.49
2023-03-19T16:15:30.013Z,16.58
2023-03-19T16:18:08.797Z,16.45
2023-03-19T16:20:41.052Z,16.34
2023-03-19T16:23:14.211Z,16.32
2023-03-19T16:25:43.990Z,16.22
2023-03-19T16:28:16.825Z,16.22
2023-03-19T16:30:47.482Z,16.29
2023-03-19T16:33:14.850Z,16.00
2023-03-19T16:35:41.645Z,15.73
2023-03-19T16:38:11.122Z,15.81
2023-03-19T16:40:37.642Z,15.76
2023-03-19T16:43:08.396Z,15.56
2023-03-19T16:45:35.521Z,15.48
2023-03-19T16:48:05.158Z,15.56
2023-03-19T16:50:39.005Z,15.49
2023-03-19T16:53:21.488Z,15.42
2023-03-19T16:55:48.434Z,15.27
2023-03-19T16:58:19.114Z,15.31
2023-03-19T17:00:46.192Z,15.26
2023-03-19T17:03:16.925Z,15.14
2023-03-19T17:05:44.623Z,15.02
2023-03-19T17:08:11.681Z,15.00
2023-03-19T17:10:39.987Z,14.94
2023-03-19T17:13:06.628Z,14.95
2023-03-19T17:15:41.781Z,14.95
2023-03-19T17:18:19.047Z,14.90
2023-03-19T17:20:52.170Z,14.69
2023-03-19T17:23:19.108Z,14.39
2023-03-19T17:25:45.767Z,14.38
2023-03-19T17:28:12.204Z,13.93
2023-03-19T17:30:39.180Z,13.48
2023-03-19T17:33:05.813Z,13.59
2023-03-19T17:35:41.035Z,13.67
2023-03-19T17:38:09.396Z,13.66
2023-03-19T17:40:37.503Z,13.81
2023-03-19T17:43:05.607Z,13.79
2023-03-19T17:45:32.088Z,13.54
2023-03-19T17:47:58.881Z,13.35
2023-03-19T17:50:26.574Z,13.34
2023-03-19T17:52:53.180Z,13.19
2023-03-19T17:55:27.140Z,13.30
2023-03-19T17:57:54.004Z,13.31
2023-03-19T18:00:21.616Z,13.33
2023-03-19T18:02:49.655Z,13.30
2023-03-19T18:05:17.760Z,13.27
2023-03-19T18:07:45.504Z,13.24
2023-03-19T18:10:18.963Z,13.07
2023-03-19T18:12:45.732Z,12.89
2023-03-19T18:15:12.988Z,12.87
2023-03-19T18:17:41.612Z,12.74
2023-03-19T18:20:12.498Z,12.71
2023-03-19T18:22:38.930Z,12.65
2023-03-19T18:25:05.586Z,12.71
2023-03-19T18:27:32.036Z,12.75
2023-03-19T18:29:58.494Z,12.73
2023-03-19T18:32:27.862Z,12.77
2023-03-19T18:34:54.404Z,12.70
2023-03-19T18:37:21.008Z,12.44
2023-03-19T18:39:47.620Z,12.21
2023-03-19T18:42:14.556Z,12.07
2023-03-19T18:44:41.339Z,12.38
2023-03-19T18:47:15.546Z,12.27
2023-03-19T18:49:42.828Z,12.42
2023-03-19T18:52:14.022Z,12.29
2023-03-19T18:54:40.756Z,12.19
2023-03-19T18:57:10.924Z,12.24
2023-03-19T18:59:37.389Z,12.13
2023-03-19T19:02:21.843Z,11.90
2023-03-19T19:04:48.526Z,12.07
2023-03-19T19:07:16.448Z,11.78
2023-03-19T19:09:42.939Z,11.87
2023-03-19T19:12:13.490Z,11.75
2023-03-19T19:14:40.209Z,11.74
2023-03-19T19:17:06.969Z,11.68
2023-03-19T19:19:33.440Z,11.65
2023-03-19T19:22:00.114Z,11.60
2023-03-19T19:24:26.695Z,11.49
2023-03-19T19:26:53.748Z,11.54
2023-03-19T19:29:24.489Z,11.45
2023-03-19T19:31:51.400Z,11.40
2023-03-19T19:34:17.903Z,11.36
2023-03-19T19:36:44.397Z,11.26
2023-03-19T19:39:11.034Z,11.20
2023-03-19T19:41:37.741Z,11.10
2023-03-19T19:44:04.542Z,11.13
2023-03-19T19:46:31.883Z,11.04
2023-03-19T19:48:59.921Z,10.97
2023-03-19T19:51:27.597Z,11.03
2023-03-19T19:53:54.360Z,11.05
2023-03-19T19:56:22.365Z,11.04
2023-03-19T19:58:51.134Z,11.00
2023-03-19T20:01:19.035Z,11.04
2023-03-19T20:03:46.591Z,10.97
2023-03-19T20:06:13.482Z,11.01
2023-03-19T20:08:40.256Z,10.84
2023-03-19T20:11:14.219Z,10.57
2023-03-19T20:13:41.304Z,10.60
2023-03-19T20:16:09.716Z,10.64
2023-03-19T20:18:37.241Z,10.65
2023-03-19T20:21:04.250Z,10.48
2023-03-19T20:23:31.339Z,10.49
2023-03-19T20:25:58.276Z,10.36
2023-03-19T20:28:27.175Z,10.44
2023-03-19T20:30:54.150Z,10.28
2023-03-19T20:33:21.576Z,10.25
2023-03-19T20:35:48.381Z,10.14
2023-03-19T20:38:14.875Z,10.09
2023-03-19T20:40:46.505Z,10.07
2023-03-19T20:43:22.253Z,9.82
2023-03-19T20:45:48.769Z,9.83
2023-03-19T20:48:16.600Z,9.98
2023-03-19T20:50:44.155Z,9.91
2023-03-19T20:53:10.744Z,9.83
2023-03-19T20:55:38.467Z,9.74
2023-03-19T20:58:24.065Z,9.72
2023-03-19T21:00:50.940Z,9.48
2023-03-19T21:03:19.065Z,9.30
2023-03-19T21:05:46.200Z,9.34
2023-03-19T21:08:17.340Z,9.21
2023-03-19T21:10:44.368Z,9.09
2023-03-19T21:13:15.549Z,8.90
2023-03-19T21:15:42.978Z,8.92
2023-03-19T21:18:10.038Z,8.99
2023-03-19T21:20:40.871Z,8.95
2023-03-19T21:23:10.568Z,8.90
2023-03-19T21:25:37.230Z,8.77
2023-03-19T21:28:05.910Z,8.72
2023-03-19T21:30:40.862Z,8.68
2023-03-19T21:33:13.988Z,8.67
2023-03-19T21:35:40.642Z,8.67
2023-03-19T21:38:07.166Z,8.55
2023-03-19T21:40:33.727Z,8.57
2023-03-19T21:43:01.498Z,8.55
2023-03-19T21:45:32.751Z,8.45
2023-03-19T21:48:20.189Z,8.41
2023-03-19T21:50:47.468Z,8.18
2023-03-19T21:53:13.906Z,8.09
2023-03-19T21:55:40.546Z,8.09
2023-03-19T21:58:10.430Z,8.12
2023-03-19T22:00:36.900Z,8.01
2023-03-19T22:03:03.509Z,7.92
2023-03-19T22:05:30.495Z,7.91
2023-03-19T22:07:57.278Z,7.86
2023-03-19T22:10:26.953Z,7.83
2023-03-19T22:12:53.516Z,7.77
2023-03-19T22:15:26.610Z,7.73
2023-03-19T22:17:53.432Z,7.63
2023-03-19T22:20:21.428Z,7.40
2023-03-19T22:22:48.282Z,7.37
2023-03-19T22:25:15.956Z,7.60
2023-03-19T22:27:43.340Z,7.61
2023-03-19T22:30:21.817Z,7.70
2023-03-19T22:32:48.688Z,7.65
2023-03-19T22:35:16.020Z,7.68
2023-03-19T22:37:42.710Z,7.67
2023-03-19T22:40:10.926Z,7.66
2023-03-19T22:42:38.340Z,7.71
2023-03-19T22:45:05.333Z,7.61
2023-03-19T22:47:34.316Z,7.88
2023-03-19T22:50:00.790Z,7.78
2023-03-19T22:52:29.057Z,7.86
2023-03-19T22:54:55.495Z,7.92
2023-03-19T22:57:21.952Z,7.69
2023-03-19T22:59:48.554Z,7.70
2023-03-19T23:02:15.029Z,7.55
2023-03-19T23:04:41.763Z,7.36
2023-03-19T23:07:12.691Z,7.24
2023-03-19T23:09:39.270Z,7.31
2023-03-19T23:12:07.323Z,7.33
2023-03-19T23:14:33.930Z,7.45
2023-03-19T23:17:03.112Z,7.51
2023-03-19T23:19:31.231Z,7.51
2023-03-19T23:21:58.872Z,7.44
2023-03-19T23:24:25.628Z,7.51
2023-03-19T23:26:53.945Z,7.47
2023-03-19T23:29:29.416Z,7.25
2023-03-19T23:31:58.538Z,7.16
2023-03-19T23:34:25.954Z,7.22
2023-03-19T23:36:53.407Z,7.28
2023-03-19T23:39:21.001Z,7.18
2023-03-19T23:41:48.528Z,7.15
2023-03-19T23:44:16.718Z,7.19
2023-03-19T23:46:44.255Z,7.16
2023-03-19T23:49:16.003Z,7.22
2023-03-19T23:51:42.530Z,7.21
2023-03-19T23:54:18.371Z,7.14
2023-03-19T23:56:44.804Z,7.16
2023-03-19T23:59:11.829Z,7.14
